Time;durP1;ratioP1;P1;durP2;ratioP2;P2;SDS_P1;SDS_P2;PMS_P1;PMS_P2;Temp;Humidity;BMP_temperature;BMP_pressure;BME280_temperature;BME280_humidity;BME280_pressure;Samples;Min_cycle;Max_cycle;Signal;HPM_P1;HPM_P2
2021/06/25 00:01:28;;;;;;;2.95;1.42;;;16.50;84.50;;;15.52;80.08;96263.78;4955971;28;20031;-64
2021/06/25 00:03:54;;;;;;;1.83;1.30;;;16.50;84.30;;;15.46;80.21;96259.34;4967160;28;20126;-65
2021/06/25 00:06:20;;;;;;;1.85;1.30;;;16.40;84.60;;;15.41;82.23;96253.06;4967190;28;20027;-65
2021/06/25 00:11:21;;;;;;;2.15;1.10;;;16.30;84.90;;;15.34;82.35;96245.13;4989727;23;20069;-67
2021/06/25 00:13:46;;;;;;;1.83;1.30;;;16.30;85.00;;;15.30;81.60;96247.41;4985522;28;20041;-67
2021/06/25 00:16:12;;;;;;;2.03;1.38;;;16.30;85.10;;;15.29;82.18;96243.13;4973326;28;20042;-67
2021/06/25 00:18:38;;;;;;;2.22;1.63;;;16.30;85.30;;;15.30;82.97;96252.72;4989538;28;20528;-67
2021/06/25 00:21:04;;;;;;;2.05;1.58;;;16.30;85.50;;;15.28;82.47;96254.78;4972632;28;20525;-67
2021/06/25 00:23:30;;;;;;;2.17;1.58;;;16.30;85.50;;;15.32;81.68;96255.16;4984406;28;20034;-67
2021/06/25 00:25:55;;;;;;;2.47;1.67;;;16.40;85.60;;;15.35;82.75;96244.09;4986412;28;20516;-67
2021/06/25 00:28:21;;;;;;;3.83;2.00;;;16.50;85.30;;;15.39;82.39;96247.97;4969701;28;20155;-68
2021/06/25 00:30:47;;;;;;;2.28;1.60;;;16.40;85.40;;;15.40;82.88;96241.66;4985999;28;20462;-67
2021/06/25 00:33:13;;;;;;;2.47;1.60;;;16.50;85.50;;;15.45;82.80;96252.41;4969432;28;20463;-68
2021/06/25 00:35:38;;;;;;;3.47;1.90;;;16.60;85.30;;;15.49;82.10;96244.84;4985975;28;20114;-68
2021/06/25 00:38:05;;;;;;;1.88;1.60;;;16.70;85.20;;;15.52;82.62;96249.69;4979647;28;20098;-68
2021/06/25 00:40:34;;;;;;;5.07;2.00;;;16.60;85.20;;;15.55;83.33;96254.56;4975936;28;20038;-67
2021/06/25 00:43:00;;;;;;;2.60;2.22;;;16.60;85.20;;;15.55;82.75;96239.47;4970470;28;20506;-68
2021/06/25 00:45:26;;;;;;;3.83;2.08;;;16.70;85.20;;;15.57;82.47;96252.50;5008904;28;20080;-67
2021/06/25 00:47:52;;;;;;;3.83;1.75;;;16.70;85.30;;;15.60;83.49;96244.97;5008583;28;20069;-67
2021/06/25 00:50:30;;;;;;;2.22;1.90;;;16.80;85.10;;;15.63;83.64;96251.69;5008153;28;20064;-67
2021/06/25 00:52:56;;;;;;;3.83;2.10;;;16.80;85.10;;;15.65;82.44;96262.91;5008769;28;20115;-68
2021/06/25 00:55:27;;;;;;;3.55;2.20;;;16.80;85.10;;;15.69;83.34;96255.31;5003882;28;20113;-67
2021/06/25 00:57:53;;;;;;;2.60;2.30;;;16.80;84.80;;;15.64;82.61;96250.66;4981437;28;20042;-67
2021/06/25 01:00:19;;;;;;;2.70;1.88;;;16.60;85.20;;;15.65;82.20;96254.94;4968965;28;20739;-67
2021/06/25 01:02:44;;;;;;;2.40;1.92;;;16.70;85.00;;;15.62;83.12;96250.06;5002507;28;20179;-67
2021/06/25 01:05:12;;;;;;;2.33;1.88;;;16.80;84.70;;;15.65;82.72;96249.63;5008776;28;20030;-68
2021/06/25 01:07:38;;;;;;;2.28;1.60;;;16.70;84.70;;;15.66;82.38;96251.25;5009128;28;20109;-67
2021/06/25 01:10:07;;;;;;;2.55;1.73;;;16.70;84.50;;;15.69;82.78;96250.00;5008300;28;20073;-67
2021/06/25 01:12:33;;;;;;;2.85;1.70;;;16.90;84.60;;;15.72;82.03;96250.38;4992535;28;20050;-67
2021/06/25 01:14:59;;;;;;;2.22;2.00;;;16.90;84.20;;;15.71;81.77;96248.75;4992147;28;20046;-68
2021/06/25 01:17:32;;;;;;;5.00;2.25;;;16.90;84.20;;;15.66;83.03;96250.44;4992613;28;20042;-67
2021/06/25 01:19:59;;;;;;;2.50;2.20;;;16.70;84.70;;;15.64;83.04;96253.31;4992543;28;20536;-67
2021/06/25 01:22:36;;;;;;;3.50;1.95;;;16.60;85.30;;;15.61;82.16;96259.03;4976365;28;20039;-67
2021/06/25 01:25:05;;;;;;;1.92;1.42;;;16.60;84.70;;;15.60;82.16;96254.75;4991664;28;20035;-68
2021/06/25 01:27:31;;;;;;;1.92;1.50;;;16.60;84.80;;;15.59;81.89;96255.78;5008946;28;20113;-67
2021/06/25 01:29:58;;;;;;;1.83;1.30;;;16.70;84.30;;;15.58;81.75;96257.63;4992105;28;20062;-68
2021/06/25 01:32:24;;;;;;;3.50;1.40;;;16.60;84.10;;;15.57;82.53;96253.31;4992281;28;20074;-67
2021/06/25 01:34:50;;;;;;;1.27;1.00;;;16.60;83.90;;;15.54;81.69;96253.75;5008781;28;20061;-67
2021/06/25 01:37:16;;;;;;;1.25;0.98;;;16.60;84.00;;;15.51;82.21;96253.38;4991863;28;20061;-67
2021/06/25 01:39:42;;;;;;;1.55;1.10;;;16.50;84.00;;;15.49;81.40;96244.84;4975134;28;20045;-68
2021/06/25 01:42:08;;;;;;;2.63;1.20;;;16.50;84.00;;;15.47;81.49;96254.84;4988847;28;20038;-67
2021/06/25 01:44:35;;;;;;;1.60;1.00;;;16.50;83.90;;;15.45;81.52;96248.94;4972883;28;20030;-67
2021/06/25 01:47:02;;;;;;;1.13;0.93;;;16.50;84.00;;;15.42;82.71;96249.38;4990387;28;20418;-68
2021/06/25 01:49:28;;;;;;;2.03;1.20;;;16.50;84.10;;;15.40;82.15;96246.16;4975408;28;20132;-67
2021/06/25 01:51:54;;;;;;;2.20;1.10;;;16.50;84.10;;;15.40;81.07;96248.78;4991680;28;20069;-67
2021/06/25 01:54:20;;;;;;;2.35;1.25;;;16.40;83.80;;;15.38;81.92;96245.53;5008371;28;20023;-68
2021/06/25 01:56:45;;;;;;;1.88;1.10;;;16.50;84.00;;;15.40;82.98;96251.44;4992237;28;20038;-67
2021/06/25 01:59:11;;;;;;;2.65;1.10;;;16.50;84.20;;;15.36;81.58;96244.91;5007607;28;20030;-67
2021/06/25 02:01:37;;;;;;;2.38;1.00;;;16.40;84.40;;;15.32;82.30;96240.06;4991603;28;20027;-67
2021/06/25 02:04:03;;;;;;;1.73;1.15;;;16.40;84.20;;;15.27;81.84;96237.25;4992133;28;20034;-67
2021/06/25 02:06:28;;;;;;;2.08;1.23;;;16.20;84.30;;;15.24;82.37;96236.88;5008171;28;20038;-67
2021/06/25 02:08:54;;;;;;;1.30;1.10;;;16.30;84.50;;;15.20;82.68;96241.78;4975193;28;20046;-67
2021/06/25 02:11:22;;;;;;;2.58;1.30;;;16.20;84.40;;;15.17;82.37;96238.75;4974814;28;20034;-67
2021/06/25 02:13:48;;;;;;;2.20;1.48;;;16.20;84.50;;;15.17;81.94;96241.41;4991585;28;20490;-67
2021/06/25 02:16:14;;;;;;;2.28;1.40;;;16.20;84.60;;;15.15;82.91;96238.13;5007865;28;20034;-67
2021/06/25 02:18:39;;;;;;;1.40;1.23;;;16.20;85.00;;;15.10;82.59;96236.13;4991719;28;20043;-67
2021/06/25 02:21:05;;;;;;;2.05;1.42;;;16.10;85.20;;;15.06;82.60;96234.94;5006931;28;20238;-68
2021/06/25 02:23:31;;;;;;;2.22;1.42;;;16.10;85.20;;;15.05;83.05;96232.50;4991717;28;20035;-68
2021/06/25 02:25:57;;;;;;;2.10;1.25;;;16.00;85.40;;;15.01;83.65;96234.78;4987349;28;20068;-67
2021/06/25 02:28:23;;;;;;;2.13;1.40;;;16.10;85.40;;;15.01;83.18;96234.78;5005227;28;20026;-67
2021/06/25 02:30:48;;;;;;;1.77;1.15;;;16.10;85.30;;;15.01;82.83;96237.41;5007461;28;20069;-67
2021/06/25 02:33:14;;;;;;;2.35;1.20;;;16.00;85.20;;;14.99;83.14;96235.00;4974874;28;20034;-67
2021/06/25 02:35:40;;;;;;;3.55;1.90;;;16.00;85.00;;;14.99;82.91;96236.81;5007589;28;20066;-68
2021/06/25 02:38:06;;;;;;;2.25;1.40;;;16.10;85.20;;;15.00;83.09;96233.97;4975105;28;20474;-67
2021/06/25 02:40:31;;;;;;;1.10;0.93;;;16.20;84.60;;;14.99;82.47;96229.69;4990753;28;20023;-68
2021/06/25 02:42:57;;;;;;;1.50;1.10;;;16.10;85.00;;;14.98;82.39;96237.84;4975163;28;20030;-67
2021/06/25 02:45:23;;;;;;;3.97;1.10;;;16.10;84.50;;;15.00;81.75;96223.38;5006642;28;21519;-68
2021/06/25 02:47:49;;;;;;;1.52;0.90;;;16.10;84.30;;;14.98;83.21;96230.72;5007638;28;20065;-67
2021/06/25 02:50:15;;;;;;;2.25;1.00;;;16.10;84.60;;;14.99;83.01;96223.59;4989804;28;20062;-67
2021/06/25 02:52:41;;;;;;;1.75;1.00;;;16.10;84.60;;;14.99;81.76;96226.22;4990337;28;20038;-68
2021/06/25 02:55:08;;;;;;;1.70;0.93;;;16.10;84.10;;;14.97;82.27;96220.34;5006069;28;20031;-68
2021/06/25 02:57:34;;;;;;;1.45;1.00;;;16.00;84.00;;;14.95;82.39;96222.38;4973930;28;20105;-67
2021/06/25 03:00:00;;;;;;;1.92;0.98;;;16.10;84.50;;;14.95;82.21;96223.19;5006078;28;20045;-68
2021/06/25 03:02:26;;;;;;;1.00;0.90;;;16.10;84.10;;;14.95;82.37;96223.19;5006350;28;20042;-68
2021/06/25 03:04:52;;;;;;;1.83;0.90;;;16.10;83.40;;;14.95;81.88;96217.09;4989770;28;20030;-68
2021/06/25 03:07:17;;;;;;;2.17;1.20;;;16.10;84.00;;;14.96;81.81;96211.56;5005559;28;20371;-68
2021/06/25 03:09:43;;;;;;;4.05;3.30;;;16.10;83.70;;;14.97;82.30;96221.16;4989532;28;20038;-68
2021/06/25 03:12:10;;;;;;;1.30;0.90;;;16.10;84.00;;;14.97;81.61;96217.69;4991388;28;20212;-68
2021/06/25 03:14:35;;;;;;;2.35;1.00;;;16.10;83.70;;;14.96;82.34;96219.53;4990002;28;20179;-68
2021/06/25 03:17:01;;;;;;;1.35;1.10;;;16.10;83.80;;;14.96;82.74;96208.94;4989254;28;20069;-68
2021/06/25 03:19:27;;;;;;;3.50;1.05;;;16.10;83.70;;;14.95;82.22;96211.78;5005367;28;20081;-68
2021/06/25 03:21:53;;;;;;;2.55;0.98;;;16.10;83.50;;;14.93;81.38;96213.81;4989905;28;20573;-68
2021/06/25 03:24:18;;;;;;;0.85;0.80;;;16.10;83.50;;;14.93;82.72;96216.47;4989017;28;20074;-68
2021/06/25 03:26:44;;;;;;;1.63;1.10;;;16.10;83.70;;;14.92;81.80;96220.13;4986289;28;20054;-68
2021/06/25 03:29:10;;;;;;;2.50;0.93;;;16.10;83.60;;;14.91;82.25;96226.47;4953549;28;20055;-68
2021/06/25 03:31:35;;;;;;;1.38;1.00;;;16.10;83.60;;;14.92;82.01;96218.31;4972496;28;20081;-67
2021/06/25 03:34:01;;;;;;;4.38;1.10;;;16.10;83.40;;;14.88;82.47;96221.59;5005884;28;20034;-68
2021/06/25 03:36:27;;;;;;;2.35;1.00;;;16.00;83.70;;;14.88;82.18;96224.25;5005772;28;20037;-68
2021/06/25 03:38:53;;;;;;;1.20;0.88;;;16.10;83.70;;;14.83;81.76;96208.19;4988990;28;20062;-68
2021/06/25 03:41:18;;;;;;;1.73;1.10;;;16.00;83.70;;;14.85;81.96;96222.03;5004862;28;20181;-68
2021/06/25 03:43:44;;;;;;;1.00;0.73;;;16.00;83.60;;;14.84;81.58;96215.09;5005653;28;20078;-68
2021/06/25 03:46:10;;;;;;;1.73;0.90;;;16.00;83.50;;;14.82;82.44;96211.84;4989624;28;20034;-68
2021/06/25 03:48:36;;;;;;;1.35;0.82;;;16.00;83.60;;;14.82;81.94;96217.16;5005423;28;20049;-68
2021/06/25 03:51:02;;;;;;;2.47;1.20;;;16.00;83.50;;;14.83;82.89;96213.47;4988503;28;20037;-68
2021/06/25 03:53:28;;;;;;;1.75;1.20;;;16.10;83.60;;;14.85;82.26;96228.13;4989192;28;20045;-68
2021/06/25 03:56:15;;;;;;;2.95;1.10;;;16.10;83.50;;;14.85;82.52;96219.38;4965467;28;20503;-68
2021/06/25 03:58:46;;;;;;;2.42;0.98;;;16.10;83.20;;;14.83;82.39;96219.59;4983550;28;20157;-68
2021/06/25 04:01:12;;;;;;;3.05;1.10;;;16.10;83.50;;;14.86;82.88;96224.47;4968977;28;20114;-68
2021/06/25 04:03:38;;;;;;;1.73;0.88;;;16.10;83.20;;;14.86;81.33;96221.00;4969762;28;20138;-68
2021/06/25 04:06:04;;;;;;;2.80;2.17;;;16.10;83.30;;;14.85;82.64;96222.84;4986131;28;20054;-68
2021/06/25 04:08:31;;;;;;;4.00;2.00;;;16.10;83.40;;;14.87;82.96;96225.25;4985442;28;20035;-68
2021/06/25 04:10:57;;;;;;;2.35;1.23;;;16.10;83.20;;;14.88;82.73;96222.41;4968836;28;20053;-68
2021/06/25 04:13:24;;;;;;;2.78;1.30;;;16.10;82.70;;;14.90;81.56;96224.84;5008289;28;20025;-68
2021/06/25 04:15:50;;;;;;;0.80;0.80;;;16.10;82.90;;;14.93;82.38;96221.75;5008525;28;20517;-68
2021/06/25 04:18:16;;;;;;;1.52;0.90;;;16.20;83.00;;;14.96;82.56;96227.47;5008352;28;20033;-68
2021/06/25 04:20:43;;;;;;;4.30;1.00;;;16.30;82.80;;;14.97;81.57;96230.94;5008096;28;20112;-68
2021/06/25 04:23:08;;;;;;;1.00;0.88;;;16.30;82.90;;;14.99;82.67;96220.94;5007935;28;20398;-67
2021/06/25 04:25:34;;;;;;;6.13;5.05;;;16.30;82.70;;;15.03;82.02;96224.78;4990630;28;20123;-67
2021/06/25 04:28:00;;;;;;;4.07;2.42;;;16.30;82.20;;;15.01;82.40;96224.19;4961020;28;20488;-67
2021/06/25 04:30:26;;;;;;;2.92;1.27;;;16.30;82.40;;;15.00;81.60;96217.25;4949689;28;20036;-67
2021/06/25 04:32:52;;;;;;;1.75;1.00;;;16.30;82.40;;;15.04;81.69;96215.81;4966016;28;20070;-68
2021/06/25 04:35:17;;;;;;;1.95;1.13;;;16.30;82.20;;;15.04;82.07;96221.09;4975941;28;20669;-68
2021/06/25 04:37:43;;;;;;;1.25;0.82;;;16.20;82.40;;;15.05;82.02;96221.91;4969287;28;20141;-68
2021/06/25 04:40:10;;;;;;;1.55;1.00;;;16.30;82.60;;;15.07;81.67;96225.16;4981310;28;20081;-68
2021/06/25 04:42:36;;;;;;;5.65;1.40;;;16.40;82.30;;;15.10;81.61;96225.53;5006066;28;20490;-68
2021/06/25 04:45:02;;;;;;;1.60;1.20;;;16.50;82.50;;;15.12;81.07;96228.78;4991366;28;20034;-68
2021/06/25 04:47:27;;;;;;;3.13;1.05;;;16.40;81.90;;;15.11;80.83;96229.81;4991968;28;20084;-68
2021/06/25 04:49:53;;;;;;;1.70;1.00;;;16.40;81.80;;;15.14;80.61;96237.31;5008423;28;20068;-67
2021/06/25 04:52:19;;;;;;;4.28;1.40;;;16.50;81.10;;;15.14;80.81;96236.50;5009358;28;20056;-67
2021/06/25 04:54:45;;;;;;;1.50;1.05;;;16.50;82.00;;;15.12;81.08;96227.97;5007412;28;20478;-68
2021/06/25 04:57:10;;;;;;;3.72;1.30;;;16.50;81.60;;;15.16;81.24;96230.00;4987836;28;20035;-68
2021/06/25 04:59:36;;;;;;;2.75;1.05;;;16.60;81.90;;;15.20;81.28;96236.50;5004032;28;20035;-67
2021/06/25 05:02:02;;;;;;;3.20;1.15;;;16.60;81.50;;;15.21;81.61;96238.13;5004603;28;20351;-68
2021/06/25 05:04:28;;;;;;;3.65;1.10;;;16.60;81.00;;;15.21;80.71;96238.13;4988838;28;20038;-68
2021/06/25 05:06:53;;;;;;;1.65;1.17;;;16.50;81.30;;;15.23;80.35;96232.59;4988774;28;20430;-68
2021/06/25 05:09:19;;;;;;;2.70;1.35;;;16.60;81.30;;;15.24;81.66;96237.69;4988293;28;20465;-68
2021/06/25 05:11:45;;;;;;;1.63;1.20;;;16.60;81.30;;;15.26;82.05;96234.81;4988514;28;20030;-67
2021/06/25 05:14:11;;;;;;;1.80;1.10;;;16.70;81.40;;;15.28;80.34;96233.56;4962808;28;20058;-67
2021/06/25 05:16:36;;;;;;;4.60;1.38;;;16.70;81.30;;;15.31;81.07;96227.84;4981998;28;20062;-68
2021/06/25 05:19:02;;;;;;;4.30;3.58;;;16.70;81.30;;;15.36;80.64;96234.31;5004358;28;20085;-68
2021/06/25 05:21:28;;;;;;;3.50;2.50;;;16.80;81.00;;;15.43;81.66;96232.47;5007834;28;20036;-67
2021/06/25 05:23:54;;;;;;;8.07;2.13;;;17.00;81.00;;;15.47;79.98;96220.38;4965181;28;20043;-68
2021/06/25 05:26:20;;;;;;;4.10;1.90;;;17.00;80.40;;;15.53;80.10;96224.81;4984850;28;20038;-67
2021/06/25 05:28:47;;;;;;;2.80;1.40;;;17.00;81.00;;;15.59;80.68;96223.97;4984716;28;20054;-68
2021/06/25 05:31:13;;;;;;;2.42;1.27;;;17.10;80.20;;;15.66;80.84;96224.75;4987235;28;20673;-68
2021/06/25 05:33:39;;;;;;;4.03;1.35;;;17.10;79.50;;;15.70;80.60;96225.13;4988291;28;20081;-67
2021/06/25 05:36:05;;;;;;;4.00;1.50;;;17.10;79.60;;;15.70;79.70;96228.59;4987841;28;20023;-67
2021/06/25 05:38:31;;;;;;;3.30;1.65;;;17.10;80.20;;;15.77;79.87;96231.97;4987971;28;20026;-67
2021/06/25 05:40:56;;;;;;;3.45;1.25;;;17.20;80.50;;;15.79;79.50;96229.91;4995794;28;20041;-68
2021/06/25 05:43:22;;;;;;;3.03;1.42;;;17.10;79.30;;;15.79;79.71;96227.25;5003959;28;20057;-67
2021/06/25 05:45:48;;;;;;;2.45;1.23;;;17.10;79.70;;;15.82;79.83;96218.84;4988070;28;20110;-67
2021/06/25 05:48:14;;;;;;;2.00;1.40;;;17.10;80.10;;;15.85;80.35;96223.75;4989209;28;20204;-67
2021/06/25 05:50:39;;;;;;;2.30;1.27;;;17.30;79.90;;;15.89;79.72;96224.13;4991150;28;20061;-68
2021/06/25 05:53:06;;;;;;;2.45;1.48;;;17.30;78.80;;;15.90;79.00;96221.25;5007289;28;20030;-68
2021/06/25 05:55:32;;;;;;;2.67;1.60;;;17.20;79.30;;;15.93;79.14;96231.41;4991663;28;20514;-67
2021/06/25 05:57:57;;;;;;;4.40;1.58;;;17.40;79.20;;;16.00;79.24;96227.88;4991754;28;20088;-68
2021/06/25 06:00:23;;;;;;;2.55;1.50;;;17.50;78.70;;;16.03;79.52;96230.91;4990936;28;20058;-68
2021/06/25 06:02:49;;;;;;;1.65;1.20;;;17.50;77.90;;;16.07;78.60;96228.63;5007514;28;20486;-68
2021/06/25 06:05:15;;;;;;;1.65;1.23;;;17.60;78.20;;;16.15;79.07;96231.00;5007300;28;20529;-68
2021/06/25 06:07:41;;;;;;;3.05;1.73;;;17.70;78.00;;;16.24;79.31;96238.44;5007621;28;20476;-68
2021/06/25 06:10:07;;;;;;;3.60;1.77;;;17.80;78.10;;;16.32;78.67;96224.09;4974442;28;20043;-67
2021/06/25 06:12:33;;;;;;;4.45;1.95;;;17.90;76.90;;;16.42;77.95;96226.22;5007367;28;20034;-68
2021/06/25 06:14:58;;;;;;;2.92;1.40;;;18.10;76.60;;;16.57;78.00;96229.28;4991196;28;20046;-68
2021/06/25 06:17:24;;;;;;;3.20;1.48;;;18.30;76.20;;;16.71;78.74;96237.94;4990359;28;20038;-68
2021/06/25 06:19:55;;;;;;;1.85;1.30;;;18.50;76.40;;;16.86;77.91;96235.69;4990676;28;20453;-68
2021/06/25 06:35:46;;;;;;;2.58;1.70;;;19.40;72.90;;;17.60;75.75;96226.41;4990702;28;20062;-68
2021/06/25 06:38:12;;;;;;;2.30;1.80;;;19.40;72.70;;;17.71;75.59;96233.63;4964940;28;20522;-68
2021/06/25 06:40:37;;;;;;;4.35;1.55;;;19.40;71.70;;;17.75;74.45;96223.34;4970518;28;20463;-68
2021/06/25 06:43:03;;;;;;;1.73;1.40;;;19.30;72.10;;;17.83;75.24;96232.81;4954551;28;20035;-68
2021/06/25 06:45:29;;;;;;;2.50;1.92;;;19.40;72.30;;;17.85;73.97;96222.75;4990694;28;20125;-69
2021/06/25 06:47:54;;;;;;;2.80;1.80;;;19.40;71.40;;;17.90;74.05;96230.88;4990621;28;20065;-68
2021/06/25 06:50:20;;;;;;;2.22;2.03;;;19.60;71.30;;;17.99;74.03;96226.81;4989902;28;20061;-68
2021/06/25 06:52:48;;;;;;;3.95;2.33;;;19.80;70.90;;;18.07;73.47;96221.13;4990369;28;20474;-67
2021/06/25 06:55:18;;;;;;;4.72;2.38;;;19.80;70.10;;;18.12;73.58;96223.91;4989884;28;20518;-68
2021/06/25 06:57:44;;;;;;;4.45;3.72;;;19.70;69.50;;;18.16;73.55;96224.25;5006230;28;20074;-67
2021/06/25 07:00:10;;;;;;;2.80;2.10;;;19.80;70.20;;;18.15;72.52;96217.31;4988228;28;20410;-67
2021/06/25 07:02:37;;;;;;;5.40;4.18;;;19.70;69.50;;;18.21;72.98;96217.19;4973289;28;20080;-68
2021/06/25 07:05:04;;;;;;;3.38;2.85;;;20.00;69.90;;;18.30;72.66;96228.28;5005916;28;20359;-67
2021/06/25 07:07:30;;;;;;;6.47;2.75;;;20.10;69.10;;;18.41;72.92;96222.13;4989865;28;20038;-67
2021/06/25 07:09:56;;;;;;;2.60;1.90;;;20.20;68.70;;;18.56;72.83;96222.44;4989259;28;20136;-67
2021/06/25 07:12:22;;;;;;;6.40;3.20;;;20.50;66.90;;;18.83;72.05;96224.59;4991240;28;20104;-68
2021/06/25 07:14:48;;;;;;;4.28;2.63;;;21.20;66.70;;;19.25;72.28;96225.09;4989927;28;20498;-68
2021/06/25 07:17:14;;;;;;;4.63;2.50;;;21.80;64.10;;;19.53;70.68;96225.06;4988809;28;20043;-68
2021/06/25 07:19:39;;;;;;;2.30;1.70;;;22.00;62.50;;;19.88;70.78;96224.81;4989352;28;20061;-68
2021/06/25 07:22:05;;;;;;;3.63;1.92;;;22.10;63.40;;;20.21;69.53;96230.34;4980934;28;20039;-68
2021/06/25 07:24:31;;;;;;;2.50;1.50;;;23.00;61.60;;;20.61;68.79;96225.56;4970045;28;20067;-68
2021/06/25 07:26:57;;;;;;;2.95;2.00;;;23.60;58.90;;;21.02;67.94;96234.03;4987003;28;20034;-67
2021/06/25 07:29:23;;;;;;;2.30;1.80;;;24.10;57.40;;;21.24;67.28;96228.66;4969572;28;20392;-68
2021/06/25 07:31:48;;;;;;;2.13;1.50;;;24.00;56.30;;;21.44;66.47;96222.69;4999747;28;20061;-67
2021/06/25 07:34:14;;;;;;;3.40;2.13;;;24.00;55.50;;;21.69;65.71;96228.25;5023784;28;20064;-68
2021/06/25 07:36:40;;;;;;;3.60;1.88;;;24.60;54.50;;;21.93;64.63;96226.03;5006403;28;20035;-68
2021/06/25 07:39:08;;;;;;;2.55;2.10;;;24.20;53.90;;;22.08;64.04;96222.69;4988737;28;20022;-68
2021/06/25 07:41:34;;;;;;;2.75;2.10;;;24.30;53.40;;;22.22;63.61;96226.53;4973736;28;20401;-68
2021/06/25 07:44:00;;;;;;;5.65;2.25;;;24.50;53.60;;;22.35;62.59;96227.94;4991032;28;20034;-68
2021/06/25 07:46:26;;;;;;;1.52;1.42;;;24.50;52.70;;;22.36;62.63;96224.97;4973064;28;20129;-68
2021/06/25 07:48:51;;;;;;;3.08;1.85;;;24.30;53.20;;;22.37;61.31;96221.22;4989265;28;20061;-68
2021/06/25 07:51:17;;;;;;;2.42;1.98;;;24.40;52.90;;;22.42;60.94;96215.94;4988910;28;20495;-69
2021/06/25 07:53:43;;;;;;;5.22;2.05;;;24.70;51.40;;;22.43;61.32;96209.50;5005909;28;20566;-68
2021/06/25 07:56:09;;;;;;;4.00;3.30;;;24.70;52.10;;;22.48;60.75;96212.19;5005935;28;20113;-70
2021/06/25 07:58:34;;;;;;;2.22;1.85;;;24.60;51.30;;;22.56;60.25;96209.00;5005080;28;20053;-70
2021/06/25 08:01:00;;;;;;;4.80;1.80;;;25.00;50.50;;;22.69;59.75;96212.28;5004705;28;20350;-69
2021/06/25 08:03:26;;;;;;;3.42;2.55;;;24.90;49.90;;;22.87;59.20;96203.78;5005530;28;20022;-68
2021/06/25 08:05:54;;;;;;;5.07;2.45;;;25.50;49.00;;;22.97;58.28;96193.06;5005770;28;20137;-69
2021/06/25 08:08:20;;;;;;;3.33;2.03;;;25.20;49.20;;;23.14;58.13;96204.38;4989190;28;20101;-69
2021/06/25 08:10:46;;;;;;;1.90;1.52;;;25.60;48.90;;;23.49;57.38;96194.75;5004984;28;20038;-69
2021/06/25 08:13:11;;;;;;;1.70;1.42;;;26.40;47.40;;;23.89;57.88;96185.09;4988493;28;20093;-68
2021/06/25 08:15:37;;;;;;;2.30;1.52;;;26.90;45.60;;;24.18;57.19;96193.34;5005332;28;20046;-69
2021/06/25 08:18:03;;;;;;;3.08;1.80;;;26.60;46.70;;;24.12;56.84;96197.94;4989077;28;20084;-69
2021/06/25 08:20:29;;;;;;;2.50;1.65;;;25.90;48.90;;;23.75;55.86;96199.06;5004880;28;20038;-69
2021/06/25 08:22:54;;;;;;;2.20;1.38;;;24.60;50.40;;;23.22;55.51;96195.81;4989040;28;20092;-67
2021/06/25 08:25:20;;;;;;;3.05;2.20;;;23.60;51.00;;;22.70;55.82;96201.28;5004784;28;20406;-68
2021/06/25 08:27:46;;;;;;;2.45;1.65;;;23.10;53.30;;;22.22;56.12;96210.44;4988759;28;20038;-68
2021/06/25 08:30:12;;;;;;;3.55;1.70;;;22.70;54.40;;;21.79;56.53;96209.63;5004804;28;20549;-68
2021/06/25 08:32:38;;;;;;;2.33;1.63;;;22.30;55.20;;;21.38;57.14;96219.97;4988836;28;20042;-68
2021/06/25 08:35:06;;;;;;;2.25;1.55;;;22.00;56.00;;;21.06;57.48;96213.78;5004970;28;20074;-69
2021/06/25 08:37:32;;;;;;;12.30;4.40;;;21.90;57.60;;;20.70;58.22;96216.03;4988732;28;20121;-68
2021/06/25 08:39:57;;;;;;;5.05;2.45;;;21.50;57.90;;;20.42;57.96;96222.38;5004901;28;20136;-68
2021/06/25 08:42:23;;;;;;;6.93;2.97;;;21.40;58.70;;;20.22;59.43;96218.59;4989692;28;20042;-69
2021/06/25 08:44:49;;;;;;;3.78;2.10;;;21.30;59.30;;;20.10;59.74;96214.16;4988722;28;20034;-68
2021/06/25 08:47:15;;;;;;;3.88;2.28;;;21.20;59.90;;;20.03;59.43;96223.41;5004395;28;20114;-68
2021/06/25 08:49:46;;;;;;;2.63;2.13;;;21.40;59.70;;;19.99;61.26;96214.28;4988903;28;20537;-68
2021/06/25 08:52:11;;;;;;;2.28;1.70;;;21.30;59.60;;;19.98;60.52;96208.13;4989348;28;20050;-67
2021/06/25 08:54:37;;;;;;;1.55;1.45;;;21.60;58.60;;;20.10;59.97;96208.81;5005812;28;20126;-69
2021/06/25 08:57:07;;;;;;;2.67;1.50;;;21.90;57.80;;;20.24;61.34;96213.81;4988623;28;20077;-68
2021/06/25 08:59:33;;;;;;;1.88;1.30;;;22.30;57.90;;;20.42;61.07;96219.72;5004839;28;20039;-68
2021/06/25 09:01:59;;;;;;;3.25;1.77;;;22.50;57.40;;;20.59;60.18;96211.63;4988995;28;20455;-68
2021/06/25 09:04:40;;;;;;;1.92;1.10;;;22.60;55.90;;;20.77;59.66;96211.31;5005642;28;20069;-68
2021/06/25 09:07:09;;;;;;;3.28;1.50;;;22.80;55.90;;;21.04;58.93;96213.19;4988855;28;20108;-68
2021/06/25 09:09:43;;;;;;;3.47;1.33;;;23.30;53.30;;;21.34;57.97;96208.19;4988271;28;20042;-69
2021/06/25 09:12:22;;;;;;;2.15;1.08;;;24.00;52.60;;;21.56;57.27;96208.09;4969839;28;20514;-68
2021/06/25 09:15:11;;;;;;;1.50;1.20;;;23.80;51.70;;;21.91;56.63;96202.19;4971374;28;20035;-67
2021/06/25 09:18:03;;;;;;;1.17;1.02;;;24.40;49.80;;;22.12;54.92;96205.03;4985660;28;20035;-69
2021/06/25 09:20:33;;;;;;;1.77;1.00;;;24.30;49.60;;;22.23;56.26;96196.00;4969260;28;20050;-68
2021/06/25 09:22:59;;;;;;;1.20;1.10;;;24.30;49.60;;;22.33;56.54;96197.91;4971959;28;20513;-69
2021/06/25 09:25:24;;;;;;;1.65;1.20;;;24.40;49.50;;;22.38;55.80;96196.03;4989248;28;20058;-68
2021/06/25 09:27:56;;;;;;;3.42;1.23;;;24.10;49.80;;;22.45;53.81;96203.88;4973545;28;20051;-68
2021/06/25 09:30:22;;;;;;;1.73;1.40;;;24.60;48.60;;;22.75;56.21;96197.81;4956753;28;20584;-68
2021/06/25 09:32:48;;;;;;;2.60;1.30;;;25.40;48.40;;;22.98;55.94;96199.25;4961822;28;20482;-68
2021/06/25 09:35:15;;;;;;;2.35;1.30;;;25.50;49.10;;;23.25;54.97;96199.03;4981400;28;20058;-68
2021/06/25 09:37:42;;;;;;;4.10;3.20;;;26.10;47.00;;;23.52;55.23;96204.94;4989243;28;20546;-67
2021/06/25 09:40:09;;;;;;;3.83;2.88;;;26.50;46.50;;;24.00;54.57;96200.94;4991159;28;20038;-67
2021/06/25 09:42:35;;;;;;;2.53;1.90;;;27.20;44.80;;;24.24;53.53;96198.47;4992115;28;20453;-67
2021/06/25 09:45:06;;;;;;;7.70;1.83;;;26.80;44.30;;;24.43;51.13;96199.50;4975662;28;20129;-69
2021/06/25 09:47:34;;;;;;;2.75;1.58;;;26.90;44.60;;;24.46;51.28;96195.47;5008572;28;20117;-68
2021/06/25 09:50:16;;;;;;;3.60;1.88;;;26.80;43.60;;;24.69;50.83;96196.72;4991867;28;20043;-68
2021/06/25 09:53:04;;;;;;;5.72;2.08;;;27.30;44.30;;;25.16;49.76;96193.53;4992229;28;20410;-67
2021/06/25 09:58:33;;;;;;;2.35;1.23;;;27.60;42.70;;;25.41;48.87;96197.13;4992432;28;20489;-68
2021/06/25 10:01:23;;;;;;;1.90;1.23;;;27.70;43.30;;;25.56;47.35;96200.50;4992067;28;20062;-68
2021/06/25 10:03:57;;;;;;;4.00;1.13;;;28.00;41.40;;;25.70;47.48;96195.31;4977505;28;20506;-68
2021/06/25 10:06:34;;;;;;;1.15;1.05;;;27.70;42.10;;;26.12;47.96;96180.38;4992000;28;20045;-69
2021/06/25 10:08:59;;;;;;;1.60;0.90;;;29.30;40.80;;;26.60;49.92;96181.19;4991429;28;20426;-68
2021/06/25 10:11:27;;;;;;;2.13;1.13;;;29.50;40.40;;;26.58;48.41;96177.19;5006843;28;20122;-70
2021/06/25 10:13:55;;;;;;;1.30;1.10;;;28.30;41.50;;;26.42;48.39;96184.66;5007987;28;20032;-68
2021/06/25 10:16:21;;;;;;;1.73;1.00;;;28.00;42.90;;;26.47;48.69;96184.56;4991636;28;20122;-68
2021/06/25 10:18:49;;;;;;;2.17;1.30;;;28.00;43.40;;;26.21;48.20;96176.75;4991944;28;20113;-67
2021/06/25 10:21:17;;;;;;;1.38;1.20;;;27.50;43.50;;;25.88;47.71;96185.72;5007356;28;20576;-68
2021/06/25 10:23:54;;;;;;;1.90;1.15;;;27.10;43.80;;;25.59;47.32;96186.50;4991799;28;20027;-68
2021/06/25 10:26:21;;;;;;;2.35;1.15;;;26.90;45.00;;;25.44;49.00;96192.00;4990376;28;20064;-68
2021/06/25 10:28:48;;;;;;;2.58;1.10;;;27.10;44.80;;;25.28;48.84;96191.28;4991638;28;20050;-67
2021/06/25 10:31:15;;;;;;;1.92;1.15;;;26.80;45.30;;;25.12;49.07;96199.72;4990863;28;20406;-68
2021/06/25 10:33:42;;;;;;;2.50;1.13;;;26.70;45.60;;;25.02;49.28;96192.53;4991373;28;20038;-68
2021/06/25 10:36:13;;;;;;;1.83;1.20;;;26.60;45.60;;;24.84;48.42;96188.56;4991510;28;20033;-68
2021/06/25 10:38:41;;;;;;;1.45;1.20;;;26.20;46.10;;;24.72;49.64;96190.78;4991300;28;20367;-68